createdAt,value
2023-02-19T00:01:27.841Z,38.40
2023-02-19T00:04:01.648Z,40.30
2023-02-19T00:06:32.298Z,39.30
2023-02-19T00:09:03.284Z,39.30
2023-02-19T00:11:34.309Z,42.40
2023-02-19T00:14:03.777Z,46.00
2023-02-19T00:16:34.886Z,48.40
2023-02-19T00:19:05.591Z,50.00
2023-02-19T00:21:34.661Z,48.50
2023-02-19T00:24:05.680Z,45.40
2023-02-19T00:26:35.806Z,44.20
2023-02-19T00:29:04.122Z,43.60
2023-02-19T00:31:36.807Z,43.10
2023-02-19T00:34:06.956Z,42.40
2023-02-19T00:36:37.633Z,41.90
2023-02-19T00:39:07.293Z,41.40
2023-02-19T00:41:35.692Z,40.80
2023-02-19T00:44:08.054Z,40.70
2023-02-19T00:46:42.508Z,40.00
2023-02-19T00:49:18.864Z,39.90
2023-02-19T00:51:48.264Z,39.50
2023-02-19T00:54:17.166Z,39.00
2023-02-19T00:56:45.695Z,38.30
2023-02-19T00:59:13.964Z,37.90
2023-02-19T01:01:43.263Z,38.40
2023-02-19T01:04:13.291Z,40.90
2023-02-19T01:06:41.698Z,39.70
2023-02-19T01:09:10.121Z,39.30
2023-02-19T01:11:38.607Z,42.50
2023-02-19T01:14:07.329Z,45.80
2023-02-19T01:16:35.907Z,48.60
2023-02-19T01:19:04.292Z,50.10
2023-02-19T01:21:33.007Z,51.50
2023-02-19T01:24:01.552Z,48.20
2023-02-19T01:26:32.412Z,46.00
2023-02-19T01:29:02.087Z,44.80
2023-02-19T01:31:31.150Z,44.10
2023-02-19T01:34:02.251Z,43.20
2023-02-19T01:36:33.561Z,42.70
2023-02-19T01:39:03.326Z,42.20
2023-02-19T01:41:33.109Z,41.50
2023-02-19T01:44:03.976Z,41.10
2023-02-19T01:46:37.730Z,40.70
2023-02-19T01:49:27.618Z,40.20
2023-02-19T01:52:14.130Z,39.80
2023-02-19T01:54:44.672Z,39.60
2023-02-19T01:57:19.823Z,39.10
2023-02-19T01:59:51.796Z,38.70
2023-02-19T02:02:20.229Z,39.00
2023-02-19T02:04:48.972Z,41.10
2023-02-19T02:07:17.617Z,40.00
2023-02-19T02:09:45.997Z,39.60
2023-02-19T02:12:14.695Z,41.50
2023-02-19T02:14:46.793Z,45.60
2023-02-19T02:17:29.150Z,48.40
2023-02-19T02:20:15.818Z,50.00
2023-02-19T02:23:04.650Z,51.90
2023-02-19T02:25:52.797Z,50.60
2023-02-19T02:28:36.231Z,46.40
2023-02-19T02:31:39.572Z,45.50
2023-02-19T02:34:12.941Z,44.80
2023-02-19T02:36:44.697Z,43.80
2023-02-19T02:39:20.917Z,43.30
2023-02-19T02:41:58.780Z,42.90
2023-02-19T02:44:35.635Z,42.20
2023-02-19T02:47:07.280Z,41.70
2023-02-19T02:49:36.118Z,41.00
2023-02-19T02:52:04.198Z,40.60
2023-02-19T02:54:34.701Z,40.30
2023-02-19T02:57:09.112Z,39.90
2023-02-19T02:59:44.727Z,39.10
2023-02-19T03:02:23.081Z,40.00
2023-02-19T03:05:04.182Z,43.40
2023-02-19T03:07:46.035Z,47.10
2023-02-19T03:10:25.476Z,49.50
2023-02-19T03:12:57.162Z,51.30
2023-02-19T03:15:30.638Z,51.90
2023-02-19T03:18:04.748Z,52.00
2023-02-19T03:20:37.745Z,48.70
2023-02-19T03:23:09.818Z,46.80
2023-02-19T03:25:40.098Z,48.40
2023-02-19T03:28:11.469Z,52.60
2023-02-19T03:30:49.993Z,55.00
2023-02-19T03:33:20.648Z,55.20
2023-02-19T03:35:59.026Z,50.60
2023-02-19T03:38:48.770Z,48.40
2023-02-19T03:41:32.323Z,47.20
2023-02-19T03:44:04.330Z,46.40
2023-02-19T03:46:43.275Z,45.80
2023-02-19T03:49:18.968Z,44.50
2023-02-19T03:51:56.642Z,44.30
2023-02-19T03:54:51.209Z,43.40
2023-02-19T03:57:57.044Z,43.20
2023-02-19T04:00:33.865Z,42.10
2023-02-19T04:03:30.475Z,41.70
2023-02-19T04:06:11.161Z,41.00
2023-02-19T04:08:43.456Z,40.20
2023-02-19T04:11:14.380Z,39.70
2023-02-19T04:13:51.931Z,41.40
2023-02-19T04:16:25.061Z,44.50
2023-02-19T04:18:57.814Z,47.40
2023-02-19T04:21:27.376Z,50.10
2023-02-19T04:23:58.309Z,51.40
2023-02-19T04:26:26.702Z,52.40
2023-02-19T04:28:55.405Z,52.40
2023-02-19T04:31:23.772Z,51.70
2023-02-19T04:33:52.136Z,47.70
2023-02-19T04:36:20.331Z,47.50
2023-02-19T04:38:48.651Z,49.80
2023-02-19T04:41:16.710Z,53.40
2023-02-19T04:43:45.028Z,55.20
2023-02-19T04:46:13.398Z,54.90
2023-02-19T04:48:41.517Z,54.20
2023-02-19T04:51:11.121Z,49.60
2023-02-19T04:53:39.735Z,48.30
2023-02-19T04:56:14.333Z,47.20
2023-02-19T04:58:44.200Z,46.30
2023-02-19T05:01:12.897Z,45.60
2023-02-19T05:03:41.442Z,44.60
2023-02-19T05:06:12.961Z,43.90
2023-02-19T05:08:41.453Z,43.40
2023-02-19T05:11:12.074Z,42.80
2023-02-19T05:13:41.110Z,42.10
2023-02-19T05:16:14.539Z,41.70
2023-02-19T05:18:44.568Z,42.00
2023-02-19T05:21:13.825Z,41.00
2023-02-19T05:23:42.459Z,40.60
2023-02-19T05:26:16.696Z,42.90
2023-02-19T05:28:49.681Z,46.90
2023-02-19T05:31:18.651Z,49.60
2023-02-19T05:33:46.968Z,51.70
2023-02-19T05:36:15.479Z,53.40
2023-02-19T05:38:44.103Z,54.90
2023-02-19T05:41:16.245Z,55.80
2023-02-19T05:43:46.079Z,56.40
2023-02-19T05:46:17.544Z,57.90
2023-02-19T05:48:46.324Z,52.40
2023-02-19T05:51:17.738Z,50.70
2023-02-19T05:53:46.897Z,49.10
2023-02-19T05:56:36.447Z,48.60
2023-02-19T05:59:19.302Z,47.00
2023-02-19T06:01:48.183Z,46.30
2023-02-19T06:04:16.805Z,45.00
2023-02-19T06:06:45.490Z,44.40
2023-02-19T06:09:13.746Z,43.80
2023-02-19T06:11:41.996Z,42.80
2023-02-19T06:14:14.693Z,42.80
2023-02-19T06:16:43.071Z,42.00
2023-02-19T06:19:11.314Z,41.10
2023-02-19T06:21:39.561Z,40.40
2023-02-19T06:24:09.151Z,41.10
2023-02-19T06:26:37.808Z,43.90
2023-02-19T06:29:05.837Z,47.40
2023-02-19T06:31:34.143Z,49.70
2023-02-19T06:34:05.850Z,51.70
2023-02-19T06:36:34.253Z,52.60
2023-02-19T06:39:04.203Z,53.50
2023-02-19T06:41:32.819Z,54.00
2023-02-19T06:44:00.804Z,52.90
2023-02-19T06:46:29.195Z,51.40
2023-02-19T06:48:57.683Z,48.90
2023-02-19T06:51:26.908Z,48.30
2023-02-19T06:53:55.242Z,53.10
2023-02-19T06:56:40.586Z,56.00
2023-02-19T06:59:14.179Z,56.80
2023-02-19T07:01:42.601Z,56.50
2023-02-19T07:04:11.141Z,55.80
2023-02-19T07:06:39.650Z,51.00
2023-02-19T07:09:09.089Z,49.30
2023-02-19T07:11:39.945Z,48.70
2023-02-19T07:14:13.953Z,47.60
2023-02-19T07:16:42.377Z,46.30
2023-02-19T07:19:11.328Z,47.60
2023-02-19T07:21:39.901Z,50.40
2023-02-19T07:24:08.669Z,53.60
2023-02-19T07:26:37.109Z,55.80
2023-02-19T07:29:05.771Z,57.50
2023-02-19T07:31:33.735Z,58.30
2023-02-19T07:34:02.124Z,59.00
2023-02-19T07:36:30.322Z,58.30
2023-02-19T07:39:01.231Z,59.10
2023-02-19T07:41:29.743Z,55.20
2023-02-19T07:43:59.849Z,52.50
2023-02-19T07:46:28.388Z,51.00
2023-02-19T07:48:56.709Z,50.60
2023-02-19T07:51:25.063Z,49.20
2023-02-19T07:53:53.355Z,49.50
2023-02-19T07:56:21.993Z,48.20
2023-02-19T07:58:50.095Z,49.00
2023-02-19T08:01:20.806Z,47.40
2023-02-19T08:03:50.533Z,46.80
2023-02-19T08:06:19.007Z,46.70
2023-02-19T08:08:47.181Z,47.00
2023-02-19T08:11:15.563Z,46.30
2023-02-19T08:13:43.774Z,45.90
2023-02-19T08:16:20.300Z,45.60
2023-02-19T08:18:52.680Z,45.20
2023-02-19T08:21:21.082Z,45.10
2023-02-19T08:23:50.998Z,46.70
2023-02-19T08:26:19.554Z,48.80
2023-02-19T08:28:48.651Z,52.80
2023-02-19T08:31:23.568Z,55.70
2023-02-19T08:33:54.723Z,58.20
2023-02-19T08:36:23.071Z,59.90
2023-02-19T08:38:54.240Z,61.00
2023-02-19T08:41:22.676Z,62.50
2023-02-19T08:43:51.347Z,62.80
2023-02-19T08:46:19.360Z,57.10
2023-02-19T08:48:47.659Z,55.60
2023-02-19T08:51:15.909Z,58.00
2023-02-19T08:53:44.095Z,63.00
2023-02-19T08:56:15.907Z,65.60
2023-02-19T08:58:44.768Z,66.70
2023-02-19T09:01:15.734Z,68.30
2023-02-19T09:03:44.521Z,67.30
2023-02-19T09:06:19.121Z,64.00
2023-02-19T09:08:47.699Z,60.90
2023-02-19T09:11:15.930Z,59.50
2023-02-19T09:13:44.659Z,58.20
2023-02-19T09:16:12.739Z,56.80
2023-02-19T09:18:41.168Z,56.10
2023-02-19T09:21:09.726Z,54.80
2023-02-19T09:23:37.977Z,54.60
2023-02-19T09:26:07.538Z,54.20
2023-02-19T09:28:35.952Z,53.70
2023-02-19T09:31:09.499Z,53.60
2023-02-19T09:33:38.242Z,52.90
2023-02-19T09:36:06.856Z,52.60
2023-02-19T09:38:35.212Z,52.30
2023-02-19T09:41:33.622Z,52.40
2023-02-19T09:44:04.508Z,51.80
2023-02-19T09:47:03.638Z,51.70
2023-02-19T09:49:41.798Z,51.90
2023-02-19T09:52:39.448Z,51.00
2023-02-19T09:55:30.970Z,50.70
2023-02-19T09:58:02.388Z,50.90
2023-02-19T10:00:34.690Z,50.40
2023-02-19T10:03:42.869Z,50.30
2023-02-19T10:06:26.167Z,49.80
2023-02-19T10:09:00.775Z,50.40
2023-02-19T10:11:29.216Z,53.30
2023-02-19T10:14:26.972Z,53.90
2023-02-19T10:16:55.970Z,54.90
2023-02-19T10:19:24.360Z,55.10
2023-02-19T10:21:52.844Z,54.10
2023-02-19T10:24:27.854Z,53.00
2023-02-19T10:26:57.583Z,55.90
2023-02-19T10:29:25.839Z,64.30
2023-02-19T10:32:16.789Z,61.40
2023-02-19T10:34:45.408Z,60.00
2023-02-19T10:37:22.622Z,59.70
2023-02-19T10:39:51.524Z,60.00
2023-02-19T10:42:24.313Z,60.20
2023-02-19T10:44:59.546Z,61.10
2023-02-19T10:47:30.286Z,61.70
2023-02-19T10:50:02.133Z,62.80
2023-02-19T10:52:35.663Z,64.70
2023-02-19T10:55:27.623Z,65.90
2023-02-19T10:57:57.594Z,67.10
2023-02-19T11:00:30.976Z,68.50
2023-02-19T11:03:22.079Z,69.50
2023-02-19T11:06:05.869Z,70.80
2023-02-19T11:08:44.551Z,71.20
2023-02-19T11:11:41.184Z,71.60
2023-02-19T11:14:19.574Z,72.20
2023-02-19T11:16:56.370Z,73.80
2023-02-19T11:19:36.626Z,74.60
2023-02-19T11:22:20.022Z,75.40
2023-02-19T11:24:56.199Z,75.40
2023-02-19T11:27:26.287Z,75.50
2023-02-19T11:29:54.786Z,75.70
2023-02-19T11:32:29.515Z,76.80
2023-02-19T11:35:23.501Z,77.30
2023-02-19T11:38:02.619Z,77.70
2023-02-19T11:41:13.958Z,76.60
2023-02-19T11:44:13.082Z,70.10
2023-02-19T11:46:58.717Z,67.90
2023-02-19T11:49:38.952Z,69.50
2023-02-19T11:52:31.335Z,71.20
2023-02-19T11:55:31.693Z,72.60
2023-02-19T11:58:18.571Z,71.00
2023-02-19T12:00:59.722Z,70.40
2023-02-19T12:03:55.787Z,70.10
2023-02-19T12:06:28.146Z,69.70
2023-02-19T12:09:26.930Z,69.30
2023-02-19T12:12:32.332Z,69.20
2023-02-19T12:15:29.218Z,69.00
2023-02-19T12:18:18.345Z,68.90
2023-02-19T12:21:11.942Z,68.70
2023-02-19T12:23:56.113Z,68.60
2023-02-19T12:26:33.478Z,68.50
2023-02-19T12:29:25.399Z,68.30
2023-02-19T12:32:10.385Z,68.20
2023-02-19T12:35:06.006Z,68.20
2023-02-19T12:38:09.535Z,67.60
2023-02-19T12:41:02.793Z,67.80
2023-02-19T12:43:32.837Z,68.00
2023-02-19T12:46:30.490Z,66.60
2023-02-19T12:49:13.256Z,66.00
2023-02-19T12:51:50.489Z,66.50
2023-02-19T12:54:42.095Z,65.90
2023-02-19T12:57:13.598Z,66.30
2023-02-19T13:00:00.364Z,65.10
2023-02-19T13:02:36.515Z,65.80
2023-02-19T13:05:32.447Z,65.50
2023-02-19T13:08:08.431Z,65.10
2023-02-19T13:10:45.618Z,65.00
2023-02-19T13:13:23.885Z,64.00
2023-02-19T13:15:54.505Z,64.10
2023-02-19T13:18:34.917Z,63.60
2023-02-19T13:21:04.380Z,63.10
2023-02-19T13:23:33.936Z,62.70
2023-02-19T13:26:26.612Z,62.30
2023-02-19T13:29:09.848Z,61.90
2023-02-19T13:32:03.185Z,61.40
2023-02-19T13:34:54.636Z,59.00
2023-02-19T13:37:24.366Z,58.90
2023-02-19T13:39:55.588Z,57.10
2023-02-19T13:42:34.703Z,58.30
2023-02-19T13:45:07.836Z,54.30
2023-02-19T13:48:02.112Z,56.70
2023-02-19T13:50:32.522Z,56.30
2023-02-19T13:53:02.538Z,56.00
2023-02-19T13:55:48.760Z,55.90
2023-02-19T13:58:39.462Z,55.80
2023-02-19T14:01:12.497Z,55.80
2023-02-19T14:03:53.675Z,56.00
2023-02-19T14:06:22.883Z,55.80
2023-02-19T14:09:01.591Z,56.00
2023-02-19T14:11:44.838Z,56.10
2023-02-19T14:14:37.490Z,56.50
2023-02-19T14:17:43.192Z,56.70
2023-02-19T14:20:17.595Z,56.80
2023-02-19T14:22:51.841Z,57.00
2023-02-19T14:25:29.003Z,57.00
2023-02-19T14:28:10.868Z,57.30
2023-02-19T14:30:48.349Z,57.40
2023-02-19T14:33:18.841Z,57.80
2023-02-19T14:35:52.064Z,57.70
2023-02-19T14:38:28.885Z,57.90
2023-02-19T14:40:57.606Z,58.20
2023-02-19T14:43:27.989Z,58.70
2023-02-19T14:46:00.679Z,58.20
2023-02-19T14:48:40.188Z,58.30
2023-02-19T14:51:14.955Z,58.50
2023-02-19T14:53:45.496Z,58.40
2023-02-19T14:56:29.958Z,58.50
2023-02-19T14:59:24.258Z,58.50
2023-02-19T15:02:16.910Z,58.60
2023-02-19T15:04:45.374Z,58.60
2023-02-19T15:07:33.156Z,58.90
2023-02-19T15:10:05.216Z,59.40
2023-02-19T15:12:56.745Z,60.10
2023-02-19T15:15:40.652Z,60.10
2023-02-19T15:18:14.713Z,60.90
2023-02-19T15:20:43.749Z,61.20
2023-02-19T15:23:23.808Z,61.00
2023-02-19T15:25:53.099Z,60.50
2023-02-19T15:28:21.431Z,61.00
2023-02-19T15:30:50.345Z,61.20
2023-02-19T15:33:21.086Z,60.90
2023-02-19T15:35:52.398Z,60.90
2023-02-19T15:38:21.337Z,60.50
2023-02-19T15:40:50.860Z,60.10
2023-02-19T15:43:29.487Z,59.60
2023-02-19T15:46:05.355Z,59.10
2023-02-19T15:48:42.457Z,58.70
2023-02-19T15:51:19.512Z,58.30
2023-02-19T15:53:58.980Z,57.90
2023-02-19T15:56:36.684Z,57.50
2023-02-19T15:59:17.410Z,57.40
2023-02-19T16:01:46.059Z,56.70
2023-02-19T16:04:19.165Z,56.50
2023-02-19T16:06:59.898Z,56.20
2023-02-19T16:09:37.113Z,55.80
2023-02-19T16:12:24.034Z,55.40
2023-02-19T16:14:52.480Z,55.00
2023-02-19T16:17:21.353Z,55.20
2023-02-19T16:19:54.054Z,54.20
2023-02-19T16:22:32.004Z,54.00
2023-02-19T16:25:03.573Z,53.80
2023-02-19T16:27:31.877Z,53.50
2023-02-19T16:30:07.466Z,53.20
2023-02-19T16:32:35.809Z,53.00
2023-02-19T16:35:04.092Z,52.90
2023-02-19T16:37:35.774Z,52.60
2023-02-19T16:40:10.138Z,52.50
2023-02-19T16:43:07.873Z,52.10
2023-02-19T16:45:36.308Z,51.90
2023-02-19T16:48:05.903Z,51.70
2023-02-19T16:50:37.678Z,51.70
2023-02-19T16:53:05.968Z,51.50
2023-02-19T16:55:34.939Z,51.40
2023-02-19T16:58:03.335Z,51.20
2023-02-19T17:00:31.872Z,51.10
2023-02-19T17:03:04.309Z,50.90
2023-02-19T17:05:32.835Z,50.70
2023-02-19T17:08:00.822Z,50.60
2023-02-19T17:10:29.586Z,50.50
2023-02-19T17:12:57.771Z,50.40
2023-02-19T17:15:26.207Z,50.30
2023-02-19T17:17:54.632Z,50.00
2023-02-19T17:20:26.962Z,50.10
2023-02-19T17:22:56.302Z,50.00
2023-02-19T17:25:24.950Z,49.70
2023-02-19T17:27:53.490Z,49.70
2023-02-19T17:30:26.329Z,49.60
2023-02-19T17:32:54.785Z,49.50
2023-02-19T17:35:23.238Z,49.30
2023-02-19T17:37:53.404Z,49.30
2023-02-19T17:40:33.554Z,49.30
2023-02-19T17:43:02.692Z,49.10
2023-02-19T17:45:31.238Z,49.10
2023-02-19T17:48:00.158Z,48.80
2023-02-19T17:50:31.811Z,48.70
2023-02-19T17:53:00.286Z,48.60
2023-02-19T17:55:28.652Z,48.50
2023-02-19T17:57:57.074Z,48.30
2023-02-19T18:00:27.786Z,48.50
2023-02-19T18:02:56.713Z,48.60
2023-02-19T18:05:25.430Z,48.60
2023-02-19T18:07:53.738Z,48.90
2023-02-19T18:10:23.662Z,48.90
2023-02-19T18:12:52.203Z,49.10
2023-02-19T18:15:21.994Z,49.10
2023-02-19T18:17:50.390Z,48.90
2023-02-19T18:20:20.101Z,48.90
2023-02-19T18:22:48.907Z,49.20
2023-02-19T18:25:18.061Z,49.90
2023-02-19T18:27:46.685Z,49.30
2023-02-19T18:30:16.468Z,49.50
2023-02-19T18:32:45.666Z,49.40
2023-02-19T18:35:13.904Z,49.50
2023-02-19T18:37:42.229Z,49.20
2023-02-19T18:40:11.218Z,49.40
2023-02-19T18:42:42.959Z,49.40
2023-02-19T18:45:11.484Z,49.70
2023-02-19T18:47:39.823Z,49.70
2023-02-19T18:50:08.502Z,49.70
2023-02-19T18:52:36.741Z,49.40
2023-02-19T18:55:05.396Z,49.80
2023-02-19T18:57:33.745Z,50.50
2023-02-19T19:00:01.846Z,50.20
2023-02-19T19:02:42.716Z,50.10
2023-02-19T19:05:21.297Z,50.00
2023-02-19T19:07:54.470Z,50.10
2023-02-19T19:10:23.129Z,50.10
2023-02-19T19:12:52.034Z,50.20
2023-02-19T19:15:21.095Z,50.60
2023-02-19T19:17:49.912Z,50.50
2023-02-19T19:20:23.022Z,50.20
2023-02-19T19:22:52.786Z,50.10
2023-02-19T19:25:22.334Z,49.80
2023-02-19T19:27:51.749Z,50.20
2023-02-19T19:30:20.387Z,50.70
2023-02-19T19:32:50.088Z,50.00
2023-02-19T19:35:19.443Z,50.20
2023-02-19T19:37:47.651Z,50.50
2023-02-19T19:40:34.112Z,50.30
2023-02-19T19:43:02.531Z,50.90
2023-02-19T19:45:30.536Z,50.70
2023-02-19T19:47:59.072Z,50.40
2023-02-19T19:50:27.642Z,50.20
2023-02-19T19:52:55.632Z,50.30
2023-02-19T19:55:24.031Z,50.20
2023-02-19T19:57:52.207Z,50.40
2023-02-19T20:00:21.201Z,50.00
2023-02-19T20:02:49.653Z,50.70
2023-02-19T20:05:17.677Z,50.70
2023-02-19T20:07:46.499Z,50.80
2023-02-19T20:10:15.618Z,50.40
2023-02-19T20:12:44.157Z,50.20
2023-02-19T20:15:12.342Z,50.60
2023-02-19T20:17:40.253Z,50.70
2023-02-19T20:20:09.526Z,50.80
2023-02-19T20:22:37.976Z,51.10
2023-02-19T20:25:06.635Z,50.80
2023-02-19T20:27:35.090Z,50.60
2023-02-19T20:30:03.398Z,50.60
2023-02-19T20:32:31.728Z,51.00
2023-02-19T20:34:59.840Z,50.80
2023-02-19T20:37:28.217Z,50.90
2023-02-19T20:39:56.528Z,51.20
2023-02-19T20:42:24.669Z,51.20
2023-02-19T20:44:52.961Z,51.30
2023-02-19T20:47:21.332Z,51.40
2023-02-19T20:49:49.270Z,51.70
2023-02-19T20:52:19.111Z,51.20
2023-02-19T20:54:47.707Z,51.30
2023-02-19T20:57:15.522Z,51.30
2023-02-19T20:59:43.948Z,51.50
2023-02-19T21:02:17.251Z,51.00
2023-02-19T21:04:45.820Z,51.80
2023-02-19T21:07:14.186Z,50.90
2023-02-19T21:09:42.589Z,51.00
2023-02-19T21:12:10.957Z,51.50
2023-02-19T21:14:39.236Z,51.40
2023-02-19T21:17:07.385Z,51.70
2023-02-19T21:19:35.690Z,51.60
2023-02-19T21:22:04.167Z,51.30
2023-02-19T21:24:32.225Z,51.80
2023-02-19T21:27:05.912Z,51.90
2023-02-19T21:29:34.339Z,52.10
2023-02-19T21:32:03.724Z,52.10
2023-02-19T21:34:32.060Z,51.90
2023-02-19T21:37:00.562Z,51.70
2023-02-19T21:39:28.564Z,51.60
2023-02-19T21:41:56.720Z,52.00
2023-02-19T21:44:25.555Z,52.00
2023-02-19T21:46:53.765Z,52.10
2023-02-19T21:49:22.175Z,52.60
2023-02-19T21:51:50.524Z,52.00
2023-02-19T21:54:20.262Z,51.80
2023-02-19T21:56:48.529Z,51.70
2023-02-19T21:59:17.196Z,51.90
2023-02-19T22:01:45.788Z,52.30
2023-02-19T22:04:16.487Z,51.90
2023-02-19T22:06:45.332Z,51.80
2023-02-19T22:09:15.034Z,51.90
2023-02-19T22:11:46.589Z,52.10
2023-02-19T22:14:14.936Z,52.60
2023-02-19T22:16:43.245Z,52.40
2023-02-19T22:19:12.656Z,52.20
2023-02-19T22:21:44.871Z,52.00
2023-02-19T22:24:19.739Z,52.30
2023-02-19T22:26:48.974Z,52.20
2023-02-19T22:29:20.049Z,52.50
2023-02-19T22:31:48.413Z,52.20
2023-02-19T22:34:18.359Z,52.10
2023-02-19T22:36:46.623Z,52.10
2023-02-19T22:39:24.489Z,52.10
2023-02-19T22:41:53.900Z,52.30
2023-02-19T22:44:22.372Z,52.10
2023-02-19T22:46:57.539Z,52.70
2023-02-19T22:49:25.899Z,52.40
2023-02-19T22:52:04.824Z,52.60
2023-02-19T22:54:33.189Z,52.40
2023-02-19T22:57:01.486Z,52.60
2023-02-19T22:59:29.723Z,52.80
2023-02-19T23:01:58.414Z,52.30
2023-02-19T23:04:27.882Z,52.90
2023-02-19T23:06:56.240Z,52.80
2023-02-19T23:09:28.678Z,53.10
2023-02-19T23:12:12.604Z,52.70
2023-02-19T23:14:41.053Z,52.30
2023-02-19T23:17:08.948Z,52.70
2023-02-19T23:19:37.098Z,52.90
2023-02-19T23:22:05.476Z,53.00
2023-02-19T23:24:33.966Z,52.90
2023-02-19T23:27:02.329Z,53.00
2023-02-19T23:29:30.525Z,52.60
2023-02-19T23:31:58.484Z,52.40
2023-02-19T23:34:27.019Z,52.30
2023-02-19T23:36:55.009Z,52.90
2023-02-19T23:39:23.604Z,53.10
2023-02-19T23:42:00.884Z,53.80
2023-02-19T23:44:29.114Z,53.40
2023-02-19T23:46:57.424Z,52.60
2023-02-19T23:49:25.788Z,52.60
2023-02-19T23:51:53.748Z,52.90
2023-02-19T23:54:22.151Z,53.30
2023-02-19T23:56:50.112Z,53.00
2023-02-19T23:59:18.465Z,53.50
